Time;durP1;ratioP1;P1;durP2;ratioP2;P2;SDS_P1;SDS_P2;PMS_P1;PMS_P2;Temp;Humidity;BMP_temperature;BMP_pressure;BME280_temperature;BME280_humidity;BME280_pressure;Samples;Min_cycle;Max_cycle;Signal;HPM_P1;HPM_P2
2022/04/08 00:01:38;;;;;;;2.40;0.90;;;19.70;53.10;;;;;;5077904;28;20043;-67
2022/04/08 00:04:04;;;;;;;4.05;1.10;;;19.70;53.10;;;;;;5081903;28;20028;-67
2022/04/08 00:06:30;;;;;;;3.17;1.17;;;19.70;53.10;;;;;;5082165;28;20055;-67
2022/04/08 00:08:56;;;;;;;2.40;1.00;;;19.70;53.10;;;;;;5080402;28;20039;-68
2022/04/08 00:11:22;;;;;;;5.13;0.80;;;19.70;53.10;;;;;;5077468;28;20106;-67
2022/04/08 00:13:51;;;;;;;2.53;0.93;;;19.60;53.00;;;;;;5084784;28;20047;-67
2022/04/08 00:16:16;;;;;;;1.98;1.05;;;19.60;53.10;;;;;;5078382;28;20076;-66
2022/04/08 00:18:42;;;;;;;2.33;1.00;;;19.60;53.00;;;;;;5076948;28;20496;-67
2022/04/08 00:21:08;;;;;;;3.97;1.10;;;19.60;53.00;;;;;;5077548;28;20035;-68
2022/04/08 00:23:34;;;;;;;2.13;0.77;;;19.60;53.10;;;;;;5083222;28;21125;-68
2022/04/08 00:26:00;;;;;;;3.35;0.90;;;19.60;53.10;;;;;;5078540;28;20028;-67
2022/04/08 00:28:26;;;;;;;2.78;1.10;;;19.60;53.10;;;;;;5076395;28;20098;-66
2022/04/08 00:30:51;;;;;;;2.10;1.00;;;19.60;53.10;;;;;;5079567;28;20036;-67
2022/04/08 00:33:17;;;;;;;3.13;0.82;;;19.60;53.10;;;;;;5079954;28;20036;-67
2022/04/08 00:35:42;;;;;;;1.88;0.90;;;19.50;53.00;;;;;;5081340;28;20040;-67
2022/04/08 00:38:08;;;;;;;1.73;0.82;;;19.50;53.00;;;;;;5084688;28;20031;-67
2022/04/08 00:40:34;;;;;;;3.53;1.20;;;19.60;53.10;;;;;;5078260;28;20071;-67
2022/04/08 00:43:13;;;;;;;1.92;0.85;;;19.50;53.10;;;;;;5080924;28;20382;-67
2022/04/08 00:45:39;;;;;;;2.00;0.90;;;19.50;53.10;;;;;;5061756;28;20051;-68
2022/04/08 00:48:07;;;;;;;3.83;0.90;;;19.50;53.00;;;;;;5079477;28;20123;-66
2022/04/08 00:50:40;;;;;;;1.92;0.75;;;19.50;53.00;;;;;;5081463;28;20067;-67
2022/04/08 00:53:07;;;;;;;2.65;0.90;;;19.50;53.00;;;;;;5073141;28;20044;-67
2022/04/08 00:55:34;;;;;;;2.53;0.98;;;19.50;53.00;;;;;;5077994;28;20028;-67
2022/04/08 00:58:02;;;;;;;2.03;0.90;;;19.50;53.00;;;;;;5080487;28;20045;-67
2022/04/08 01:00:35;;;;;;;1.88;0.70;;;19.40;53.00;;;;;;5080509;28;20039;-67
2022/04/08 01:03:02;;;;;;;3.40;1.05;;;19.50;53.00;;;;;;5083257;28;20043;-67
2022/04/08 01:05:28;;;;;;;3.78;0.80;;;19.50;53.00;;;;;;5081148;28;20047;-67
2022/04/08 01:07:56;;;;;;;3.88;0.77;;;19.50;53.00;;;;;;5078229;28;20465;-67
2022/04/08 01:10:23;;;;;;;2.50;0.98;;;19.50;53.00;;;;;;5080620;28;20024;-67
2022/04/08 01:12:49;;;;;;;2.25;0.80;;;19.40;53.00;;;;;;5080938;28;20036;-67
2022/04/08 01:15:19;;;;;;;1.65;0.82;;;19.40;52.90;;;;;;5082477;28;20039;-67
2022/04/08 01:17:45;;;;;;;1.48;0.77;;;19.40;52.90;;;;;;5080332;28;20048;-67
2022/04/08 01:20:11;;;;;;;1.73;0.85;;;19.40;52.90;;;;;;5081288;28;20045;-67
2022/04/08 01:22:37;;;;;;;2.50;0.88;;;19.40;53.00;;;;;;5086956;28;20101;-66
2022/04/08 01:25:04;;;;;;;2.63;0.80;;;19.40;52.90;;;;;;5082985;28;20043;-67
2022/04/08 01:27:30;;;;;;;2.10;0.75;;;19.50;52.90;;;;;;5081693;28;20036;-67
2022/04/08 01:29:56;;;;;;;2.42;0.82;;;19.40;52.80;;;;;;5084368;28;20032;-67
2022/04/08 01:32:22;;;;;;;2.20;0.88;;;19.40;52.80;;;;;;5083972;28;20028;-67
2022/04/08 01:34:52;;;;;;;2.60;0.80;;;19.40;52.80;;;;;;5081604;28;20078;-67
2022/04/08 01:37:21;;;;;;;1.20;0.60;;;19.50;52.80;;;;;;5081510;28;20063;-67
2022/04/08 01:39:47;;;;;;;2.58;0.90;;;19.40;52.70;;;;;;5078526;28;20042;-67
2022/04/08 01:42:13;;;;;;;2.78;0.80;;;19.40;52.80;;;;;;5063397;28;20078;-67
2022/04/08 01:44:39;;;;;;;1.45;0.82;;;19.40;52.70;;;;;;5080780;28;20475;-67
2022/04/08 01:47:05;;;;;;;1.60;0.70;;;19.40;52.80;;;;;;5080532;28;20550;-67
2022/04/08 01:49:31;;;;;;;1.75;0.75;;;19.40;52.80;;;;;;5079364;28;20127;-68
2022/04/08 01:51:58;;;;;;;1.60;0.90;;;19.40;52.80;;;;;;5081413;28;20119;-67
2022/04/08 01:54:23;;;;;;;2.42;0.70;;;19.40;52.80;;;;;;5085039;28;20662;-67
2022/04/08 01:56:49;;;;;;;2.78;0.75;;;19.40;52.80;;;;;;5078340;28;20041;-67
2022/04/08 01:59:15;;;;;;;1.20;0.65;;;19.40;52.80;;;;;;5059181;28;20037;-67
2022/04/08 02:01:41;;;;;;;1.42;0.90;;;19.40;52.80;;;;;;5082160;28;20083;-67
2022/04/08 02:04:07;;;;;;;1.13;0.68;;;19.40;52.80;;;;;;5081481;28;20090;-67
2022/04/08 02:06:34;;;;;;;2.50;0.70;;;19.30;52.80;;;;;;5079227;28;20025;-67
2022/04/08 02:09:00;;;;;;;2.17;0.80;;;19.30;52.80;;;;;;5085454;28;20047;-67
2022/04/08 02:11:26;;;;;;;2.15;0.70;;;19.30;52.80;;;;;;5077707;28;20450;-67
2022/04/08 02:13:52;;;;;;;2.35;0.98;;;19.30;52.80;;;;;;5078823;28;20082;-66
2022/04/08 02:16:18;;;;;;;2.83;0.63;;;19.30;52.80;;;;;;5077607;28;20044;-67
2022/04/08 02:18:44;;;;;;;1.90;0.73;;;19.30;52.80;;;;;;5079201;28;20044;-67
2022/04/08 02:21:10;;;;;;;1.38;0.68;;;19.30;52.80;;;;;;5084506;28;20112;-67
2022/04/08 02:23:36;;;;;;;1.30;0.57;;;19.30;52.80;;;;;;5083487;28;20563;-67
2022/04/08 02:26:06;;;;;;;2.17;0.70;;;19.30;52.80;;;;;;5086364;28;20088;-67
2022/04/08 02:28:35;;;;;;;1.08;0.80;;;19.30;52.80;;;;;;5080641;28;20032;-67
2022/04/08 02:31:01;;;;;;;2.30;0.85;;;19.30;53.50;;;;;;5083922;28;20096;-67
2022/04/08 02:33:27;;;;;;;1.88;0.70;;;19.30;53.00;;;;;;5085214;28;20123;-67
2022/04/08 02:35:53;;;;;;;1.98;0.90;;;19.30;52.70;;;;;;5080178;28;20033;-67
2022/04/08 02:38:18;;;;;;;1.67;0.60;;;19.30;52.70;;;;;;5084695;28;20428;-67
2022/04/08 02:40:44;;;;;;;1.65;0.70;;;19.30;52.70;;;;;;5085002;28;20427;-68
2022/04/08 02:43:10;;;;;;;2.30;0.70;;;19.30;52.70;;;;;;5077920;28;20047;-67
2022/04/08 02:45:36;;;;;;;1.05;0.52;;;19.30;52.70;;;;;;5081861;28;20034;-68
2022/04/08 02:48:02;;;;;;;1.02;0.52;;;19.30;52.70;;;;;;5083612;28;20390;-67
2022/04/08 02:50:28;;;;;;;1.45;0.70;;;19.30;52.70;;;;;;5080984;28;20478;-67
2022/04/08 02:52:54;;;;;;;2.92;0.60;;;19.30;52.60;;;;;;5081185;28;20024;-67
2022/04/08 02:55:19;;;;;;;1.70;0.50;;;19.30;52.70;;;;;;5069195;28;20845;-67
2022/04/08 02:57:46;;;;;;;2.08;0.80;;;19.30;52.60;;;;;;5082251;28;20135;-67
2022/04/08 03:00:19;;;;;;;3.13;0.80;;;19.30;52.60;;;;;;5082372;28;20036;-67
2022/04/08 03:02:47;;;;;;;2.05;0.60;;;19.30;52.60;;;;;;5082839;28;20036;-67
2022/04/08 03:05:14;;;;;;;1.45;0.50;;;19.30;52.60;;;;;;5082342;28;20028;-67
2022/04/08 03:07:40;;;;;;;0.88;0.50;;;19.30;52.50;;;;;;5085064;28;20473;-67
2022/04/08 03:10:07;;;;;;;1.25;0.70;;;19.30;52.50;;;;;;5084375;28;20908;-67
2022/04/08 03:12:33;;;;;;;2.50;0.82;;;19.30;52.50;;;;;;5080442;28;20470;-67
2022/04/08 03:14:59;;;;;;;0.95;0.50;;;19.30;52.50;;;;;;5087882;28;20035;-67
2022/04/08 03:17:25;;;;;;;2.15;0.60;;;19.30;52.50;;;;;;5080511;28;20049;-67
2022/04/08 03:19:51;;;;;;;1.42;0.68;;;19.30;52.50;;;;;;5082829;28;20472;-68
2022/04/08 03:22:21;;;;;;;1.30;0.60;;;19.30;52.40;;;;;;5085037;28;20055;-67
2022/04/08 03:24:47;;;;;;;1.33;0.60;;;19.30;52.40;;;;;;5081170;28;20040;-67
2022/04/08 03:27:14;;;;;;;0.80;0.60;;;19.30;52.20;;;;;;5058932;28;20768;-67
2022/04/08 03:29:39;;;;;;;1.88;0.70;;;19.30;52.40;;;;;;5077392;28;20085;-68
2022/04/08 03:32:06;;;;;;;1.20;0.50;;;19.30;52.40;;;;;;5081453;28;20428;-67
2022/04/08 03:34:32;;;;;;;1.05;0.57;;;19.30;52.40;;;;;;5080282;28;20048;-67
2022/04/08 03:36:58;;;;;;;1.77;0.60;;;19.30;52.40;;;;;;5082525;28;20046;-67
2022/04/08 03:39:23;;;;;;;1.67;0.50;;;19.30;52.40;;;;;;5080471;28;20025;-67
2022/04/08 03:41:50;;;;;;;1.33;0.60;;;19.30;52.40;;;;;;5084488;28;20036;-67
2022/04/08 03:44:15;;;;;;;1.15;0.60;;;19.30;52.40;;;;;;5080251;28;20055;-67
2022/04/08 03:46:41;;;;;;;1.35;0.60;;;19.20;52.30;;;;;;5079335;28;20074;-68
2022/04/08 03:49:14;;;;;;;2.53;0.70;;;19.30;52.30;;;;;;5075304;28;20459;-67
2022/04/08 03:51:41;;;;;;;0.95;0.60;;;19.30;52.40;;;;;;5078220;28;20047;-67
2022/04/08 03:54:07;;;;;;;1.30;0.63;;;19.30;52.40;;;;;;5081814;28;20074;-68
2022/04/08 03:56:34;;;;;;;1.35;0.60;;;19.30;52.40;;;;;;5080970;28;20032;-67
2022/04/08 03:58:59;;;;;;;2.17;0.75;;;19.30;52.30;;;;;;5077690;28;20032;-67
2022/04/08 04:01:25;;;;;;;2.08;0.60;;;19.30;52.30;;;;;;5078374;28;20089;-67
2022/04/08 04:03:51;;;;;;;1.60;0.63;;;19.20;52.20;;;;;;5080993;28;20428;-67
2022/04/08 04:06:17;;;;;;;1.38;0.60;;;19.20;52.20;;;;;;5061363;28;20071;-68
2022/04/08 04:08:42;;;;;;;2.67;0.70;;;19.20;52.30;;;;;;5077996;28;20044;-67
2022/04/08 04:11:08;;;;;;;1.67;0.50;;;19.20;52.20;;;;;;5079986;28;20075;-67
2022/04/08 04:13:34;;;;;;;1.77;0.65;;;19.20;52.20;;;;;;5079491;28;20067;-67
2022/04/08 04:16:00;;;;;;;1.42;0.60;;;19.30;52.20;;;;;;5074289;28;20539;-67
2022/04/08 04:18:27;;;;;;;0.82;0.40;;;19.20;52.20;;;;;;5079628;28;20033;-67
2022/04/08 04:20:52;;;;;;;1.27;0.60;;;19.20;52.20;;;;;;5080339;28;20585;-68
2022/04/08 04:23:18;;;;;;;1.52;0.60;;;19.20;52.20;;;;;;5079480;28;20039;-68
2022/04/08 04:25:44;;;;;;;1.60;0.50;;;19.20;52.20;;;;;;5075965;28;20048;-68
2022/04/08 04:28:09;;;;;;;1.10;0.50;;;19.20;52.10;;;;;;5075206;28;20063;-67
2022/04/08 04:30:35;;;;;;;1.88;0.60;;;19.20;52.10;;;;;;5074185;28;20040;-68
2022/04/08 04:33:01;;;;;;;1.83;0.60;;;19.20;52.10;;;;;;5077560;28;20391;-67
2022/04/08 04:35:27;;;;;;;1.70;0.77;;;19.30;52.10;;;;;;5076503;28;20036;-67
2022/04/08 04:37:53;;;;;;;2.58;0.65;;;19.20;52.10;;;;;;5057370;28;20059;-67
2022/04/08 04:40:20;;;;;;;1.50;0.55;;;19.20;52.00;;;;;;5083974;28;20028;-67
2022/04/08 04:42:45;;;;;;;1.73;0.65;;;19.20;52.10;;;;;;5080378;28;20063;-67
2022/04/08 04:45:13;;;;;;;1.30;0.50;;;19.20;52.00;;;;;;5081667;28;20056;-67
2022/04/08 04:47:39;;;;;;;1.73;0.70;;;19.20;52.10;;;;;;5064229;28;20396;-68
2022/04/08 04:50:05;;;;;;;0.63;0.45;;;19.20;52.10;;;;;;5083845;28;20282;-67
2022/04/08 04:52:31;;;;;;;1.42;0.60;;;19.20;52.00;;;;;;5088363;28;20079;-67
2022/04/08 04:54:56;;;;;;;1.08;0.40;;;19.20;52.00;;;;;;5082248;28;20070;-68
2022/04/08 04:57:22;;;;;;;1.92;0.85;;;19.20;52.00;;;;;;5082117;28;20036;-67
2022/04/08 04:59:48;;;;;;;0.88;0.40;;;19.20;52.00;;;;;;5063431;28;20105;-67
2022/04/08 05:02:14;;;;;;;1.77;0.68;;;19.20;51.90;;;;;;5082140;28;20028;-67
2022/04/08 05:04:39;;;;;;;1.88;0.63;;;19.20;52.10;;;;;;5083560;28;20060;-67
2022/04/08 05:07:05;;;;;;;3.47;0.60;;;19.20;51.90;;;;;;5086248;28;20088;-69
2022/04/08 05:09:32;;;;;;;1.33;0.60;;;19.20;52.10;;;;;;5082284;28;20028;-67
2022/04/08 05:11:57;;;;;;;3.75;0.70;;;19.20;52.00;;;;;;5081771;28;20044;-68
2022/04/08 05:14:24;;;;;;;4.43;0.60;;;19.20;51.80;;;;;;5085152;28;20046;-67
2022/04/08 05:16:51;;;;;;;1.98;0.70;;;19.20;51.70;;;;;;5079477;28;20040;-68
2022/04/08 05:19:16;;;;;;;1.67;0.73;;;19.20;51.70;;;;;;5081160;28;20039;-68
2022/04/08 05:21:42;;;;;;;1.15;0.50;;;19.20;51.80;;;;;;5077418;28;20037;-68
2022/04/08 05:24:09;;;;;;;2.60;0.68;;;19.20;51.90;;;;;;5079780;28;20032;-67
2022/04/08 05:26:35;;;;;;;2.60;0.65;;;19.20;51.90;;;;;;5077783;28;20089;-68
2022/04/08 05:29:00;;;;;;;1.25;0.47;;;19.20;51.90;;;;;;5080990;28;20139;-68
2022/04/08 05:31:26;;;;;;;1.80;0.60;;;19.20;52.10;;;;;;5079101;28;20467;-68
2022/04/08 05:33:52;;;;;;;2.17;0.68;;;19.30;52.10;;;;;;5081308;28;20044;-67
2022/04/08 05:36:17;;;;;;;2.13;0.80;;;19.20;52.00;;;;;;5082756;28;20395;-68
2022/04/08 05:38:43;;;;;;;1.83;0.55;;;19.30;52.10;;;;;;5081027;28;20057;-68
2022/04/08 05:41:09;;;;;;;2.50;0.50;;;19.30;52.10;;;;;;5084508;28;20363;-69
2022/04/08 05:43:34;;;;;;;1.50;0.55;;;19.30;52.00;;;;;;5087011;28;20039;-68
2022/04/08 05:46:00;;;;;;;1.58;0.60;;;19.30;52.00;;;;;;5083423;28;20067;-69
2022/04/08 05:48:26;;;;;;;1.17;0.55;;;19.40;52.00;;;;;;5086778;28;20064;-69
2022/04/08 05:50:51;;;;;;;3.22;0.60;;;19.40;52.00;;;;;;5079029;28;20032;-69
2022/04/08 05:53:17;;;;;;;1.60;0.68;;;19.40;52.10;;;;;;5082042;28;20036;-69
2022/04/08 05:55:43;;;;;;;0.95;0.52;;;19.40;52.00;;;;;;5063555;28;20039;-68
2022/04/08 05:58:08;;;;;;;2.05;0.60;;;19.40;52.00;;;;;;5081625;28;20048;-68
2022/04/08 06:00:35;;;;;;;1.15;0.50;;;19.40;52.10;;;;;;5079568;28;20036;-68
2022/04/08 06:03:01;;;;;;;1.58;0.68;;;19.40;52.10;;;;;;5083113;28;20066;-68
2022/04/08 06:05:27;;;;;;;1.92;0.68;;;19.50;52.20;;;;;;5086334;28;20035;-67
2022/04/08 06:07:54;;;;;;;0.93;0.50;;;19.50;52.00;;;;;;5080969;28;20047;-69
2022/04/08 06:10:22;;;;;;;1.58;0.47;;;19.50;52.00;;;;;;5082678;28;20028;-69
2022/04/08 06:12:57;;;;;;;0.73;0.50;;;19.50;52.00;;;;;;5083370;28;20125;-69
2022/04/08 06:15:24;;;;;;;2.72;0.65;;;19.50;52.00;;;;;;5087396;28;20367;-69
2022/04/08 06:17:50;;;;;;;1.42;0.60;;;19.50;52.00;;;;;;5092485;28;20100;-67
2022/04/08 06:20:17;;;;;;;3.17;0.60;;;19.50;52.00;;;;;;5092069;28;20131;-67
2022/04/08 06:22:44;;;;;;;1.75;0.57;;;19.50;52.00;;;;;;5086765;28;20040;-67
2022/04/08 06:25:12;;;;;;;4.47;0.70;;;19.50;51.90;;;;;;5070217;28;20052;-68
2022/04/08 06:27:38;;;;;;;2.88;0.60;;;19.60;52.10;;;;;;5070380;28;20039;-69
2022/04/08 06:30:09;;;;;;;2.40;0.60;;;19.60;52.20;;;;;;5086399;28;20046;-69
2022/04/08 06:32:35;;;;;;;2.53;0.60;;;19.60;52.50;;;;;;5081268;28;20717;-68
2022/04/08 06:35:01;;;;;;;1.85;0.70;;;19.60;52.60;;;;;;5081100;28;20379;-68
2022/04/08 06:37:30;;;;;;;1.90;0.60;;;19.70;52.80;;;;;;5082307;28;20032;-68
2022/04/08 06:40:01;;;;;;;1.67;0.65;;;19.70;53.00;;;;;;5082071;28;20547;-68
2022/04/08 06:42:26;;;;;;;2.05;0.60;;;19.70;53.10;;;;;;5078599;28;20506;-68
2022/04/08 06:44:52;;;;;;;6.15;0.60;;;19.80;53.30;;;;;;5077342;28;20032;-68
2022/04/08 06:47:18;;;;;;;5.88;0.77;;;19.80;53.30;;;;;;5080302;28;20246;-66
2022/04/08 06:49:46;;;;;;;2.65;0.68;;;19.90;53.50;;;;;;5063226;28;20032;-68
2022/04/08 06:52:13;;;;;;;3.08;0.52;;;19.90;53.50;;;;;;5085293;28;20036;-67
2022/04/08 06:54:39;;;;;;;3.17;0.73;;;19.90;53.50;;;;;;5079670;28;20035;-70
2022/04/08 06:57:04;;;;;;;1.83;0.50;;;20.00;53.60;;;;;;5082007;28;20028;-67
2022/04/08 06:59:30;;;;;;;5.75;0.70;;;20.00;53.60;;;;;;5085143;28;20082;-68
2022/04/08 07:01:56;;;;;;;0.95;0.52;;;20.10;53.60;;;;;;5086188;28;20032;-68
2022/04/08 07:04:21;;;;;;;1.88;0.68;;;20.20;53.70;;;;;;5079473;28;20360;-68
2022/04/08 07:06:47;;;;;;;1.13;0.52;;;20.20;53.60;;;;;;5077227;28;20045;-70
2022/04/08 07:09:13;;;;;;;3.00;0.80;;;20.20;53.50;;;;;;5081091;28;20107;-68
2022/04/08 07:11:39;;;;;;;5.15;0.60;;;20.30;53.40;;;;;;5081041;28;20062;-68
2022/04/08 07:14:05;;;;;;;4.38;0.75;;;20.30;53.40;;;;;;5080086;28;20089;-68
2022/04/08 07:16:30;;;;;;;1.70;0.60;;;20.30;53.20;;;;;;5082601;28;20036;-70
2022/04/08 07:18:56;;;;;;;0.70;0.47;;;20.40;53.20;;;;;;5083433;28;20384;-68
2022/04/08 07:21:22;;;;;;;1.23;0.60;;;20.30;53.10;;;;;;5082782;28;20039;-69
2022/04/08 07:23:48;;;;;;;1.55;0.68;;;20.40;53.10;;;;;;5078892;28;20041;-68
2022/04/08 07:26:14;;;;;;;2.22;0.60;;;20.40;52.90;;;;;;5086202;28;20043;-69
2022/04/08 07:28:40;;;;;;;1.60;0.63;;;20.50;52.90;;;;;;5074852;28;20513;-68
2022/04/08 07:31:06;;;;;;;1.40;0.43;;;20.50;52.80;;;;;;5086357;28;20079;-68
2022/04/08 07:33:32;;;;;;;1.92;0.77;;;20.60;52.60;;;;;;5083317;28;20074;-66
2022/04/08 07:35:58;;;;;;;6.43;0.82;;;20.60;52.40;;;;;;5089023;28;20046;-66
2022/04/08 07:38:24;;;;;;;5.13;0.80;;;20.60;51.70;;;;;;5081529;28;20040;-66
2022/04/08 07:40:51;;;;;;;5.82;0.73;;;20.60;51.10;;;;;;5099720;28;20364;-66
2022/04/08 07:43:17;;;;;;;2.25;0.70;;;20.60;50.90;;;;;;5082241;28;20093;-65
2022/04/08 07:45:43;;;;;;;2.50;0.82;;;20.60;50.90;;;;;;5084659;28;20722;-66
2022/04/08 07:48:09;;;;;;;2.72;0.88;;;20.50;50.70;;;;;;5087624;28;20035;-66
2022/04/08 07:50:37;;;;;;;1.20;0.60;;;20.60;50.80;;;;;;5089769;28;20390;-66
2022/04/08 07:53:03;;;;;;;5.10;0.88;;;20.60;50.90;;;;;;5088724;28;20061;-66
2022/04/08 07:55:29;;;;;;;1.17;0.52;;;20.60;50.90;;;;;;5085728;28;20089;-66
2022/04/08 07:57:55;;;;;;;6.90;0.60;;;20.60;50.90;;;;;;5081049;28;20033;-67
2022/04/08 08:00:25;;;;;;;3.08;0.70;;;20.70;50.90;;;;;;5088902;28;20028;-67
2022/04/08 08:02:51;;;;;;;3.47;0.80;;;20.70;50.80;;;;;;5086004;28;20050;-66
2022/04/08 08:05:20;;;;;;;2.25;0.80;;;20.80;50.90;;;;;;5086684;28;20028;-66
2022/04/08 08:07:50;;;;;;;2.63;0.63;;;20.80;50.80;;;;;;5090756;28;20091;-67
2022/04/08 08:10:24;;;;;;;3.72;0.63;;;20.80;50.70;;;;;;5082757;28;20059;-68
2022/04/08 08:12:51;;;;;;;2.05;0.60;;;20.90;50.70;;;;;;5080342;28;20092;-67
2022/04/08 08:15:20;;;;;;;1.40;0.65;;;20.90;50.70;;;;;;5084321;28;20619;-69
2022/04/08 08:17:47;;;;;;;1.92;0.63;;;20.90;50.60;;;;;;5082035;28;20051;-68
2022/04/08 08:20:15;;;;;;;2.22;0.60;;;20.90;50.50;;;;;;5084940;28;20367;-68
2022/04/08 08:22:41;;;;;;;4.38;0.63;;;20.80;50.60;;;;;;5086927;28;20039;-68
2022/04/08 08:25:08;;;;;;;2.72;0.63;;;20.80;50.60;;;;;;5087167;28;20040;-68
2022/04/08 08:27:48;;;;;;;6.03;0.93;;;20.90;50.80;;;;;;5088644;28;20074;-69
2022/04/08 08:30:16;;;;;;;3.42;0.73;;;20.90;50.80;;;;;;5086629;28;20048;-69
2022/04/08 08:32:45;;;;;;;2.40;0.70;;;20.90;50.70;;;;;;5084346;28;20122;-70
2022/04/08 08:35:17;;;;;;;2.55;0.60;;;20.90;50.70;;;;;;5087161;28;20032;-70
2022/04/08 08:37:43;;;;;;;6.13;0.77;;;20.90;50.70;;;;;;5069422;28;20390;-72
2022/04/08 08:40:11;;;;;;;8.25;0.60;;;21.00;50.90;;;;;;5052849;28;20028;-69
2022/04/08 08:42:38;;;;;;;3.65;1.00;;;21.00;50.90;;;;;;5086782;28;20032;-68
2022/04/08 08:45:08;;;;;;;2.92;0.57;;;21.00;50.80;;;;;;5087956;28;20033;-69
2022/04/08 08:47:34;;;;;;;4.38;0.70;;;21.10;50.80;;;;;;5085889;28;20115;-68
2022/04/08 08:50:00;;;;;;;4.40;0.95;;;21.10;50.60;;;;;;5090677;28;20560;-68
2022/04/08 08:52:28;;;;;;;2.70;0.80;;;21.10;50.50;;;;;;5090097;28;20036;-68
2022/04/08 08:54:54;;;;;;;2.78;0.90;;;21.10;50.40;;;;;;5090721;28;20043;-68
2022/04/08 08:57:22;;;;;;;6.28;0.70;;;21.10;50.30;;;;;;5090011;28;20071;-68
2022/04/08 08:59:51;;;;;;;1.80;0.90;;;21.10;50.20;;;;;;5088286;28;20474;-68
2022/04/08 09:02:19;;;;;;;3.15;0.60;;;21.20;50.20;;;;;;5071074;28;20557;-68
2022/04/08 09:04:45;;;;;;;3.63;0.70;;;21.20;50.20;;;;;;5090090;28;20081;-68
2022/04/08 09:07:24;;;;;;;2.53;0.90;;;21.10;50.10;;;;;;5090009;28;20383;-68
2022/04/08 09:09:52;;;;;;;3.13;0.70;;;21.20;50.00;;;;;;5071803;28;20047;-68
2022/04/08 09:12:19;;;;;;;5.28;0.80;;;21.10;50.00;;;;;;5088285;28;20032;-68
2022/04/08 09:14:49;;;;;;;3.22;0.70;;;21.20;50.00;;;;;;5072191;28;20040;-69
2022/04/08 09:17:19;;;;;;;1.58;0.60;;;21.20;50.00;;;;;;5089112;28;20497;-68
2022/04/08 09:19:52;;;;;;;2.65;0.70;;;21.10;49.90;;;;;;5089736;28;20115;-69
2022/04/08 09:22:20;;;;;;;1.27;0.57;;;21.20;50.00;;;;;;5089757;28;20043;-69
2022/04/08 09:24:46;;;;;;;2.17;0.70;;;21.20;49.90;;;;;;5089706;28;20052;-68
2022/04/08 09:27:12;;;;;;;3.38;0.70;;;21.20;50.00;;;;;;5085403;28;20043;-68
2022/04/08 09:29:45;;;;;;;2.72;0.70;;;21.20;49.90;;;;;;5089470;28;20059;-68
2022/04/08 09:32:12;;;;;;;3.72;0.70;;;21.20;49.90;;;;;;5088224;28;20044;-69
2022/04/08 09:34:40;;;;;;;2.65;0.60;;;21.20;49.90;;;;;;5089203;28;20111;-70
2022/04/08 09:37:13;;;;;;;2.20;0.75;;;21.20;49.90;;;;;;5093155;28;20395;-69
2022/04/08 09:40:03;;;;;;;1.88;0.85;;;21.20;49.90;;;;;;5092933;28;20024;-69
2022/04/08 09:42:45;;;;;;;1.95;0.70;;;21.20;49.80;;;;;;5092625;28;20479;-69
2022/04/08 09:45:12;;;;;;;1.80;0.70;;;21.30;49.90;;;;;;5093188;28;20474;-69
2022/04/08 09:47:38;;;;;;;4.72;1.02;;;21.30;49.90;;;;;;5092337;28;20088;-69
2022/04/08 09:50:05;;;;;;;3.13;0.68;;;21.40;49.90;;;;;;5090439;28;20036;-69
2022/04/08 09:52:32;;;;;;;4.15;0.93;;;21.30;49.80;;;;;;5092824;28;20470;-69
2022/04/08 09:55:03;;;;;;;1.10;0.50;;;21.40;49.80;;;;;;5092949;28;20498;-69
2022/04/08 09:57:35;;;;;;;1.45;0.70;;;21.40;49.70;;;;;;5092635;28;20036;-69
2022/04/08 10:00:03;;;;;;;1.83;0.60;;;21.40;49.60;;;;;;5092653;28;20078;-69
2022/04/08 10:02:29;;;;;;;1.83;0.60;;;21.40;49.50;;;;;;5091158;28;20024;-69
2022/04/08 10:04:55;;;;;;;1.63;0.70;;;21.50;49.50;;;;;;5092888;28;20032;-69
2022/04/08 10:07:22;;;;;;;1.10;0.60;;;21.50;49.50;;;;;;5082186;28;20502;-67
2022/04/08 10:10:26;;;;;;;1.85;0.68;;;21.50;49.50;;;;;;5083913;28;20058;-67
2022/04/08 10:13:19;;;;;;;1.63;0.70;;;21.50;49.40;;;;;;5080820;28;20490;-67
2022/04/08 10:15:51;;;;;;;2.75;0.75;;;21.50;49.20;;;;;;5084818;28;20085;-68
2022/04/08 10:18:17;;;;;;;4.22;1.00;;;21.50;49.10;;;;;;5079053;28;20032;-69
2022/04/08 10:20:45;;;;;;;3.22;0.80;;;21.50;49.30;;;;;;5063359;28;20525;-68
2022/04/08 10:23:13;;;;;;;3.25;0.70;;;21.50;49.20;;;;;;5082769;28;20490;-69
2022/04/08 10:25:41;;;;;;;1.30;0.60;;;21.50;49.30;;;;;;5078967;28;20482;-67
2022/04/08 10:28:09;;;;;;;3.75;0.75;;;21.50;49.40;;;;;;5082851;28;20044;-70
2022/04/08 10:30:46;;;;;;;5.50;0.90;;;21.50;49.50;;;;;;5079064;28;20095;-68
2022/04/08 10:33:13;;;;;;;2.40;0.80;;;21.50;49.60;;;;;;5085017;28;20500;-68
2022/04/08 10:35:52;;;;;;;3.05;0.90;;;21.50;49.60;;;;;;5081533;28;20101;-73
2022/04/08 10:38:18;;;;;;;4.65;1.40;;;21.50;49.80;;;;;;5080101;28;20043;-71
2022/04/08 10:40:52;;;;;;;4.70;0.95;;;21.60;49.80;;;;;;5079438;28;20036;-66
2022/04/08 10:43:18;;;;;;;1.80;0.80;;;21.60;50.00;;;;;;5081596;28;20059;-70
2022/04/08 10:45:58;;;;;;;5.75;1.00;;;21.60;50.10;;;;;;5077226;28;20081;-68
2022/04/08 10:48:33;;;;;;;3.35;1.08;;;21.60;50.30;;;;;;5085044;28;20040;-69
2022/04/08 10:51:16;;;;;;;6.35;0.77;;;21.70;51.30;;;;;;5082721;28;20052;-69
2022/04/08 10:53:42;;;;;;;7.40;1.02;;;21.70;50.60;;;;;;5081286;28;20074;-70
2022/04/08 10:56:13;;;;;;;4.03;0.82;;;21.70;50.50;;;;;;5085586;28;20119;-68
2022/04/08 10:58:49;;;;;;;3.63;0.98;;;21.70;50.50;;;;;;5075069;28;20178;-73
2022/04/08 11:01:25;;;;;;;8.20;1.40;;;21.70;50.50;;;;;;5077096;28;20028;-71
2022/04/08 11:04:02;;;;;;;2.58;0.75;;;21.70;50.60;;;;;;5078130;28;20040;-70
2022/04/08 11:06:36;;;;;;;3.88;0.80;;;21.70;50.70;;;;;;5078465;28;20044;-68
2022/04/08 11:09:06;;;;;;;6.22;0.93;;;21.70;50.90;;;;;;5079855;28;20748;-69
2022/04/08 11:11:41;;;;;;;4.82;1.23;;;21.70;51.10;;;;;;5079571;28;20043;-69
2022/04/08 11:14:08;;;;;;;10.57;1.30;;;21.70;51.20;;;;;;5080866;28;20051;-68
2022/04/08 11:16:37;;;;;;;4.72;0.95;;;21.70;51.30;;;;;;5080734;28;20040;-68
2022/04/08 11:19:05;;;;;;;5.95;1.08;;;21.70;51.30;;;;;;5062936;28;20059;-68
2022/04/08 11:21:34;;;;;;;7.88;1.02;;;21.70;51.50;;;;;;5080224;28;20458;-68
2022/04/08 11:24:02;;;;;;;3.70;1.20;;;21.70;51.50;;;;;;5084669;28;20159;-68
2022/04/08 11:26:29;;;;;;;5.65;0.93;;;21.70;51.40;;;;;;5077900;28;20044;-67
2022/04/08 11:29:17;;;;;;;4.15;1.20;;;21.70;51.30;;;;;;5080850;28;20094;-67
2022/04/08 11:31:44;;;;;;;3.90;1.00;;;21.70;51.20;;;;;;5078764;28;20089;-65
2022/04/08 11:34:11;;;;;;;6.78;1.00;;;21.80;51.00;;;;;;5085152;28;20062;-67
2022/04/08 11:36:37;;;;;;;7.93;1.20;;;21.80;51.00;;;;;;5081030;28;20093;-65
2022/04/08 11:39:06;;;;;;;2.17;1.02;;;21.80;50.90;;;;;;5085187;28;20475;-66
2022/04/08 11:41:34;;;;;;;4.05;1.27;;;21.70;50.90;;;;;;5082782;28;20471;-67
2022/04/08 11:44:01;;;;;;;4.60;1.25;;;21.70;50.90;;;;;;5084670;28;20374;-66
2022/04/08 11:46:27;;;;;;;2.65;1.20;;;21.70;50.90;;;;;;5082184;28;20070;-67
2022/04/08 11:48:53;;;;;;;6.82;1.35;;;21.70;50.90;;;;;;5082075;28;20075;-67
2022/04/08 11:51:22;;;;;;;2.80;1.30;;;21.80;50.80;;;;;;5080879;28;20185;-67
2022/04/08 11:53:49;;;;;;;4.70;0.90;;;21.80;50.60;;;;;;5079929;28;20036;-66
2022/04/08 11:56:21;;;;;;;3.13;1.02;;;21.80;51.30;;;;;;5061718;28;20033;-67
2022/04/08 11:58:57;;;;;;;3.95;1.20;;;21.80;50.30;;;;;;5079872;28;20119;-66
2022/04/08 12:01:23;;;;;;;4.55;1.05;;;21.80;50.30;;;;;;5077349;28;20028;-69
2022/04/08 12:03:51;;;;;;;4.00;1.20;;;21.70;50.30;;;;;;5083840;28;20039;-67
2022/04/08 12:06:18;;;;;;;3.28;1.23;;;21.70;50.20;;;;;;5084333;28;20038;-69
2022/04/08 12:08:47;;;;;;;4.82;1.30;;;21.80;50.10;;;;;;5072475;28;20066;-68
2022/04/08 12:11:14;;;;;;;4.97;1.15;;;21.80;50.00;;;;;;5091917;28;20036;-67
2022/04/08 12:13:41;;;;;;;5.18;1.30;;;21.90;50.00;;;;;;5081473;28;20043;-70
2022/04/08 12:16:12;;;;;;;3.60;1.50;;;21.90;50.00;;;;;;5081678;28;20498;-69
2022/04/08 12:18:50;;;;;;;2.72;1.10;;;22.00;50.00;;;;;;5089542;28;20393;-68
2022/04/08 12:21:22;;;;;;;3.67;1.25;;;22.00;49.80;;;;;;5091441;28;20036;-68
2022/04/08 12:23:49;;;;;;;2.42;1.10;;;22.10;49.80;;;;;;5080132;28;20040;-68
2022/04/08 12:26:16;;;;;;;4.40;1.55;;;22.20;49.70;;;;;;5093388;28;20035;-68
2022/04/08 12:28:42;;;;;;;3.38;1.15;;;22.40;49.50;;;;;;5087544;28;20040;-68
2022/04/08 12:31:16;;;;;;;5.03;1.00;;;22.80;48.80;;;;;;5078846;28;20037;-67
2022/04/08 12:33:42;;;;;;;3.85;1.17;;;23.30;48.00;;;;;;5077085;28;20037;-66
2022/04/08 12:36:12;;;;;;;3.78;1.13;;;23.70;47.10;;;;;;5075023;28;20146;-67
2022/04/08 12:38:42;;;;;;;2.33;1.10;;;24.10;46.30;;;;;;5062482;28;20209;-69
2022/04/08 12:41:10;;;;;;;3.40;1.05;;;24.30;45.60;;;;;;5058999;28;20404;-69
2022/04/08 12:43:35;;;;;;;2.88;1.20;;;24.20;45.30;;;;;;5073202;28;20086;-68
2022/04/08 12:46:01;;;;;;;4.00;1.23;;;24.10;45.20;;;;;;5074009;28;20037;-68
2022/04/08 12:48:27;;;;;;;4.57;1.15;;;24.00;45.10;;;;;;5080677;28;20459;-67
2022/04/08 12:50:55;;;;;;;5.18;1.20;;;24.20;45.10;;;;;;5072234;28;20045;-69